KLAN/LAN METAR and TAF weather

Enter ICAO airport designator
Station Type Date Time Source
KLAN METAR 2021/03/03 20:53 UTC NOAA

KLAN 032053Z 31011KT 10SM CLR 10/01 A2993 RMK AO2 SLP139 T01000006 53006


Station Type Date Time Source
KLAN Decoded METAR 2021/03/03 20:53 UTC NOAA

CAPITAL CITY AIRPORT, MI, United States (KLAN) 42-47N 084-35W 264M
Mar 03, 2021 - 03:53 PM EST / 2021.03.03 2053 UTC
Wind: from the NW (310 degrees) at 13 MPH (11 KT):0
Visibility: 10 mile(s):0
Sky conditions: clear
Temperature: 50.0 F (10.0 C)
Dew Point: 33.1 F (0.6 C)
Relative Humidity: 51%
Pressure (altimeter): 29.93 in. Hg (1013 hPa)
Pressure tendency: 0.02 inches (0.6 hPa) higher than three hours ago
ob: KLAN 032053Z 31011KT 10SM CLR 10/01 A2993 RMK AO2 SLP139 T01000006 53006
cycle: 21

Station Type Date Time Source
KLAN TAF 2021/03/03 18:46 UTC NOAA

TAF KLAN 031744Z 0318/0418 29012G20KT P6SM SKC
FM040100 35009KT P6SM SCT020

Example: see airport list